Time;durP1;ratioP1;P1;durP2;ratioP2;P2;SDS_P1;SDS_P2;PMS_P1;PMS_P2;Temp;Humidity;BMP_temperature;BMP_pressure;BME280_temperature;BME280_humidity;BME280_pressure;Samples;Min_cycle;Max_cycle;Signal;HPM_P1;HPM_P2
2022/11/17 00:02:08;;;;;;;4.00;1.65;;;11.30;99.90;;;11.10;100.00;98695.09;5064978;29;20048;-73
2022/11/17 00:04:40;;;;;;;3.17;1.63;;;11.20;99.90;;;11.14;100.00;98688.13;5064087;29;20060;-73
2022/11/17 00:07:12;;;;;;;4.18;1.30;;;11.30;99.90;;;11.16;100.00;98685.56;5064081;29;20056;-73
2022/11/17 00:09:44;;;;;;;4.25;1.10;;;11.30;99.90;;;11.18;100.00;98681.19;5065033;29;20131;-73
2022/11/17 00:15:07;;;;;;;5.28;1.20;;;11.40;99.90;;;11.21;100.00;98671.59;5065457;29;20049;-75
2022/11/17 00:17:40;;;;;;;3.30;1.17;;;11.30;99.90;;;11.21;100.00;98675.97;5065018;29;20049;-72
2022/11/17 00:23:05;;;;;;;5.32;1.30;;;11.40;99.90;;;11.24;100.00;98650.75;5064977;29;20055;-73
2022/11/17 00:25:37;;;;;;;3.75;1.33;;;11.40;99.90;;;11.24;100.00;98653.38;5065126;29;20052;-74
2022/11/17 00:28:09;;;;;;;2.72;1.10;;;11.40;99.90;;;11.26;100.00;98638.56;5064748;29;20052;-72
2022/11/17 00:36:25;;;;;;;4.75;1.58;;;11.40;99.90;;;11.26;100.00;98620.31;5064925;29;20053;-75
2022/11/17 00:38:57;;;;;;;2.20;1.02;;;11.40;99.90;;;11.26;100.00;98622.06;5064505;29;20048;-73
2022/11/17 00:41:29;;;;;;;3.38;1.23;;;11.40;99.90;;;11.28;100.00;98609.88;5064388;29;20055;-73
2022/11/17 00:44:02;;;;;;;2.63;1.10;;;11.40;99.90;;;11.33;100.00;98595.09;5064640;29;20510;-73
2022/11/17 00:46:36;;;;;;;3.05;1.30;;;11.50;99.90;;;11.35;100.00;98603.81;5064924;29;20544;-74
2022/11/17 00:49:11;;;;;;;3.05;1.02;;;11.50;99.90;;;11.38;100.00;98585.50;5064339;29;20048;-73
2022/11/17 00:51:43;;;;;;;4.80;1.00;;;11.50;99.90;;;11.41;100.00;98572.47;5063390;29;20072;-73
2022/11/17 00:54:15;;;;;;;5.13;1.13;;;11.50;99.90;;;11.40;100.00;98570.72;5079174;29;20053;-72
2022/11/17 00:56:47;;;;;;;3.55;1.23;;;11.50;99.90;;;11.37;100.00;98573.34;5064729;29;20514;-73
2022/11/17 00:59:19;;;;;;;3.60;1.00;;;11.50;99.90;;;11.36;100.00;98562.06;5063216;29;20060;-73
2022/11/17 01:01:52;;;;;;;4.00;1.15;;;11.50;99.90;;;11.39;100.00;98571.59;5064564;29;20047;-75
2022/11/17 01:04:25;;;;;;;4.03;1.05;;;11.50;99.90;;;11.40;100.00;98578.53;5064391;29;20058;-73
2022/11/17 01:06:57;;;;;;;3.60;1.20;;;11.50;99.90;;;11.39;100.00;98564.63;5064768;29;20045;-73
2022/11/17 01:09:29;;;;;;;4.07;1.20;;;11.50;99.90;;;11.40;100.00;98568.09;5064290;29;20051;-73
2022/11/17 01:12:01;;;;;;;4.53;1.23;;;11.50;99.90;;;11.40;100.00;98557.69;5064574;29;20040;-73
2022/11/17 01:14:33;;;;;;;3.47;1.30;;;11.50;99.90;;;11.41;100.00;98564.66;5077834;29;20044;-74
2022/11/17 01:17:06;;;;;;;3.50;1.40;;;11.50;99.90;;;11.42;100.00;98555.94;5098415;29;20199;-72
2022/11/17 01:19:39;;;;;;;2.67;1.35;;;11.50;99.90;;;11.42;100.00;98550.72;5082635;29;20058;-72
2022/11/17 01:22:11;;;;;;;4.22;1.27;;;11.60;99.90;;;11.40;100.00;98536.81;5084080;29;20234;-74
2022/11/17 01:24:44;;;;;;;3.67;1.00;;;11.50;99.90;;;11.38;100.00;98525.53;5084382;29;20052;-72
2022/11/17 01:27:16;;;;;;;3.78;1.25;;;11.50;99.90;;;11.36;100.00;98528.16;5083884;29;20063;-72
2022/11/17 01:29:48;;;;;;;2.97;1.13;;;11.50;99.90;;;11.35;100.00;98520.34;5083515;29;20052;-72
2022/11/17 01:32:20;;;;;;;3.00;1.40;;;11.50;99.90;;;11.35;100.00;98512.50;5084600;29;20052;-72
2022/11/17 01:34:53;;;;;;;3.40;1.38;;;11.50;99.90;;;11.33;100.00;98503.81;5083298;29;20086;-71
2022/11/17 01:37:27;;;;;;;4.68;1.10;;;11.50;99.90;;;11.34;100.00;98510.75;5082636;29;20048;-75
2022/11/17 01:39:59;;;;;;;3.17;1.30;;;11.50;99.90;;;11.35;100.00;98502.09;5082122;29;20052;-74
2022/11/17 01:42:31;;;;;;;2.65;1.25;;;11.50;99.90;;;11.35;100.00;98521.19;5082335;29;20055;-73
2022/11/17 01:45:17;;;;;;;2.90;1.13;;;11.50;99.90;;;11.35;100.00;98491.66;5084682;29;20056;-72
2022/11/17 01:47:53;;;;;;;2.75;1.30;;;11.50;99.90;;;11.31;100.00;98485.56;5101703;29;20473;-74
2022/11/17 01:50:33;;;;;;;3.38;1.20;;;11.50;99.90;;;11.32;100.00;98494.25;5087392;29;20048;-74
2022/11/17 01:53:09;;;;;;;2.83;1.17;;;11.50;99.90;;;11.29;100.00;98482.09;5087183;29;20043;-72
2022/11/17 01:55:46;;;;;;;2.72;1.05;;;11.50;99.90;;;11.28;100.00;98480.38;5087403;29;20262;-75
2022/11/17 01:58:21;;;;;;;2.35;1.05;;;11.40;99.90;;;11.25;100.00;98471.69;5086920;29;20139;-72
2022/11/17 02:00:55;;;;;;;1.92;1.00;;;11.40;99.90;;;11.23;100.00;98476.91;5086646;29;20433;-75
2022/11/17 02:03:31;;;;;;;2.28;1.02;;;11.40;99.90;;;11.23;100.00;98470.84;5087245;29;20040;-75
2022/11/17 02:06:09;;;;;;;2.25;1.20;;;11.40;99.90;;;11.22;100.00;98469.13;5086975;29;20043;-74
2022/11/17 02:08:46;;;;;;;2.58;1.10;;;11.40;99.90;;;11.21;100.00;98462.13;5086422;29;20079;-74
2022/11/17 02:11:20;;;;;;;4.75;1.30;;;11.40;99.90;;;11.25;100.00;98461.25;5086754;29;20058;-73
2022/11/17 02:13:54;;;;;;;2.50;0.90;;;11.40;99.90;;;11.26;100.00;98457.78;5086717;29;20052;-74
2022/11/17 02:16:27;;;;;;;4.60;1.10;;;11.40;99.90;;;11.27;100.00;98456.91;5086741;29;20059;-73
2022/11/17 02:18:59;;;;;;;2.65;0.88;;;11.40;99.90;;;11.24;100.00;98455.19;5086575;29;20445;-73
2022/11/17 02:22:00;;;;;;;2.78;1.02;;;11.40;99.90;;;11.21;100.00;98438.66;5086330;29;20413;-74
2022/11/17 02:24:57;;;;;;;3.22;1.10;;;11.40;99.90;;;11.12;100.00;98442.19;5086629;29;20047;-71
2022/11/17 02:28:06;;;;;;;1.80;0.85;;;11.30;99.90;;;11.10;100.00;98434.41;5100991;29;20059;-72
2022/11/17 02:30:49;;;;;;;1.52;0.82;;;11.30;99.90;;;11.11;100.00;98441.34;5086980;29;20063;-75
2022/11/17 02:33:32;;;;;;;1.23;0.98;;;11.30;99.90;;;11.10;100.00;98437.00;5086256;29;20059;-74
2022/11/17 02:36:10;;;;;;;4.40;1.13;;;11.30;99.90;;;11.08;100.00;98417.00;5086824;29;20055;-73
2022/11/17 02:38:53;;;;;;;1.95;1.00;;;11.30;99.90;;;11.12;100.00;98411.78;5085918;29;20498;-74
2022/11/17 02:41:31;;;;;;;0.95;0.73;;;11.30;99.90;;;11.19;100.00;98411.75;5086185;29;20048;-74
2022/11/17 02:44:09;;;;;;;1.77;0.80;;;11.30;99.90;;;11.23;100.00;98436.94;5086087;29;20406;-73
2022/11/17 02:46:47;;;;;;;2.03;0.73;;;11.30;99.90;;;11.27;100.00;98420.38;5086226;29;20056;-75
2022/11/17 02:49:24;;;;;;;1.15;0.80;;;11.40;99.90;;;11.31;100.00;98403.84;5085623;29;20054;-75
2022/11/17 02:51:58;;;;;;;2.47;0.82;;;11.40;99.90;;;11.35;100.00;98405.59;5086116;29;20585;-72
2022/11/17 02:54:32;;;;;;;3.00;1.10;;;11.50;99.90;;;11.36;100.00;98395.13;5084537;29;20059;-73
2022/11/17 02:57:04;;;;;;;2.05;0.75;;;11.50;99.90;;;11.43;100.00;98388.13;5085855;29;20056;-72
2022/11/17 02:59:45;;;;;;;1.13;0.85;;;11.50;99.90;;;11.41;100.00;98398.59;5085607;29;20409;-74
2022/11/17 03:02:38;;;;;;;2.22;0.75;;;11.50;99.90;;;11.43;100.00;98395.09;5085776;29;20051;-74
2022/11/17 03:05:15;;;;;;;2.75;0.98;;;11.50;99.90;;;11.42;100.00;98396.84;5084418;29;20056;-72
2022/11/17 03:08:07;;;;;;;2.70;0.68;;;11.50;99.90;;;11.42;100.00;98389.00;5084082;29;20067;-73
2022/11/17 03:10:51;;;;;;;2.10;0.80;;;11.50;99.90;;;11.43;100.00;98385.53;5085818;29;20055;-73
2022/11/17 03:13:33;;;;;;;2.15;0.88;;;11.50;99.90;;;11.43;100.00;98393.34;5085638;29;20048;-74
2022/11/17 03:16:17;;;;;;;1.27;0.73;;;11.60;99.90;;;11.43;100.00;98389.88;5084448;29;20054;-73
2022/11/17 03:19:02;;;;;;;1.20;0.65;;;11.50;99.90;;;11.44;100.00;98387.25;5085378;29;20134;-73
2022/11/17 03:21:40;;;;;;;1.35;0.63;;;11.60;99.90;;;11.47;100.00;98387.22;5085997;29;20095;-72
2022/11/17 03:24:19;;;;;;;2.15;0.90;;;11.50;99.90;;;11.52;100.00;98385.44;5085444;29;20080;-74
2022/11/17 03:26:56;;;;;;;0.98;0.80;;;11.60;99.90;;;11.51;100.00;98395.91;5085493;29;20051;-71
2022/11/17 03:29:31;;;;;;;2.05;0.95;;;11.60;99.90;;;11.48;100.00;98375.94;5085107;29;20126;-73
2022/11/17 03:32:08;;;;;;;3.22;0.80;;;11.60;99.90;;;11.50;100.00;98382.00;5085303;29;20120;-72
2022/11/17 03:34:46;;;;;;;2.20;0.60;;;11.60;99.90;;;11.54;100.00;98372.38;5085406;29;20063;-74
2022/11/17 03:37:21;;;;;;;1.00;0.63;;;11.60;99.90;;;11.52;100.00;98375.00;5085255;29;20055;-75
2022/11/17 03:39:58;;;;;;;1.60;0.63;;;11.60;99.90;;;11.53;100.00;98355.00;5084937;29;20044;-75
2022/11/17 03:42:35;;;;;;;0.55;0.55;;;11.60;99.90;;;11.54;100.00;98355.03;5084838;29;20054;-72
2022/11/17 03:45:14;;;;;;;1.30;0.80;;;11.60;99.90;;;11.50;100.00;98358.53;5084987;29;20131;-75
2022/11/17 03:47:53;;;;;;;2.15;0.80;;;11.60;99.90;;;11.58;100.00;98348.88;5084706;29;20055;-74
2022/11/17 03:50:32;;;;;;;1.13;0.68;;;11.60;99.90;;;11.54;100.00;98347.19;5085737;29;20058;-72
2022/11/17 03:53:06;;;;;;;0.82;0.57;;;11.60;99.90;;;11.50;100.00;98336.78;5085332;29;20524;-73
2022/11/17 03:55:46;;;;;;;1.63;0.70;;;11.60;99.90;;;11.49;100.00;98338.53;5085255;29;20524;-75
2022/11/17 03:58:21;;;;;;;1.65;0.80;;;11.60;99.90;;;11.43;100.00;98322.06;5084692;29;20051;-74
2022/11/17 04:00:54;;;;;;;1.15;0.52;;;11.50;99.90;;;11.37;100.00;98326.44;5083645;29;20048;-74
2022/11/17 04:03:32;;;;;;;1.20;0.60;;;11.50;99.90;;;11.31;100.00;98317.81;5085068;29;20071;-73
2022/11/17 04:06:05;;;;;;;1.13;0.70;;;11.50;99.90;;;11.29;100.00;98306.53;5084674;29;20051;-74
2022/11/17 04:08:37;;;;;;;1.00;0.77;;;11.40;99.90;;;11.27;100.00;98323.91;5083568;29;20041;-75
2022/11/17 04:16:48;;;;;;;1.08;0.60;;;11.40;99.90;;;11.28;100.00;98310.88;5084911;29;20044;-73
2022/11/17 04:19:22;;;;;;;1.58;1.00;;;11.40;99.90;;;11.30;100.00;98305.66;5084220;29;20044;-74
2022/11/17 04:21:54;;;;;;;3.05;1.20;;;11.40;99.90;;;11.29;100.00;98303.91;5084510;29;20048;-73
2022/11/17 04:24:26;;;;;;;3.13;2.20;;;11.40;99.90;;;11.28;100.00;98302.16;5084468;29;20043;-75
2022/11/17 04:29:47;;;;;;;1.95;0.90;;;11.40;99.90;;;11.24;100.00;98301.34;5084265;29;20084;-74
2022/11/17 04:32:19;;;;;;;1.42;1.02;;;11.40;99.90;;;11.25;100.00;98294.38;5084563;29;20106;-73
2022/11/17 04:34:53;;;;;;;6.32;2.22;;;11.40;99.90;;;11.25;100.00;98292.63;5084402;29;20418;-72
2022/11/17 04:37:25;;;;;;;2.75;1.33;;;11.40;99.90;;;11.27;100.00;98290.00;5084499;29;20040;-74
2022/11/17 04:39:57;;;;;;;4.15;0.90;;;11.40;99.90;;;11.31;100.00;98305.63;5082522;29;20052;-74
2022/11/17 04:42:28;;;;;;;2.35;1.10;;;11.40;99.90;;;11.27;100.00;98296.09;5084383;29;20394;-73
2022/11/17 04:45:00;;;;;;;0.98;0.88;;;11.40;99.90;;;11.26;100.00;98267.41;5084412;29;20047;-74
2022/11/17 04:47:32;;;;;;;2.67;1.05;;;11.40;99.90;;;11.28;100.00;98273.47;5084279;29;20460;-75
2022/11/17 04:50:07;;;;;;;1.85;0.65;;;11.40;99.90;;;11.31;100.00;98292.59;5084035;29;20040;-73
2022/11/17 04:52:39;;;;;;;2.50;1.10;;;11.40;99.90;;;11.35;100.00;98283.00;5084458;29;20044;-73
2022/11/17 04:55:11;;;;;;;2.40;0.82;;;11.40;99.90;;;11.36;100.00;98289.94;5084381;29;20251;-74
2022/11/17 04:57:43;;;;;;;2.30;1.13;;;11.40;99.90;;;11.38;100.00;98275.16;5083993;29;20167;-72
2022/11/17 05:00:17;;;;;;;1.60;1.13;;;11.50;99.90;;;11.35;100.00;98267.38;5084395;29;20310;-74
2022/11/17 05:02:49;;;;;;;2.13;1.02;;;11.50;99.90;;;11.34;100.00;98276.03;5084224;29;20071;-73
2022/11/17 05:05:23;;;;;;;1.45;1.17;;;11.50;99.90;;;11.33;100.00;98269.97;5082803;29;20418;-74
2022/11/17 05:07:55;;;;;;;1.80;0.85;;;11.50;99.90;;;11.32;100.00;98272.59;5082579;29;20155;-72
2022/11/17 05:13:25;;;;;;;2.58;1.10;;;11.50;99.90;;;11.36;100.00;98269.09;5084013;29;20092;-74
2022/11/17 05:18:47;;;;;;;2.20;1.20;;;11.50;99.90;;;11.35;100.00;98270.84;5083666;29;20050;-73
2022/11/17 05:21:21;;;;;;;3.15;1.15;;;11.50;99.90;;;11.38;100.00;98277.75;5086980;29;20380;-73
2022/11/17 05:23:55;;;;;;;2.17;1.08;;;11.50;99.90;;;11.37;100.00;98269.06;5086395;29;20059;-74
2022/11/17 05:26:29;;;;;;;2.28;1.10;;;11.50;99.90;;;11.37;100.00;98265.59;5086668;29;20226;-72
2022/11/17 05:29:04;;;;;;;3.75;1.30;;;11.50;99.90;;;11.40;100.00;98257.72;5087300;29;20044;-73
2022/11/17 05:31:36;;;;;;;2.33;0.95;;;11.50;99.90;;;11.37;100.00;98255.16;5087729;29;20056;-73
2022/11/17 05:34:11;;;;;;;3.03;1.23;;;11.50;99.90;;;11.38;100.00;98257.75;5087451;29;20052;-75
2022/11/17 05:36:45;;;;;;;2.80;1.02;;;11.50;99.90;;;11.37;100.00;98261.25;5086393;29;20131;-74
2022/11/17 05:42:00;;;;;;;2.88;1.15;;;11.50;99.90;;;11.33;100.00;98248.22;5121592;29;20043;-71
2022/11/17 05:44:32;;;;;;;2.15;1.00;;;11.50;99.90;;;11.35;100.00;98252.56;5124963;29;20050;-72
2022/11/17 05:47:04;;;;;;;3.65;1.30;;;11.50;99.90;;;11.40;100.00;98255.13;5141327;28;20047;-70
2022/11/17 05:49:36;;;;;;;2.67;0.82;;;11.50;99.90;;;11.38;100.00;98256.88;5125883;28;20519;-72
2022/11/17 05:52:09;;;;;;;1.67;1.10;;;11.50;99.90;;;11.37;100.00;98255.16;5126619;28;20032;-71
2022/11/17 05:54:42;;;;;;;2.15;1.30;;;11.50;99.90;;;11.34;100.00;98263.00;5126428;28;20074;-72
2022/11/17 05:57:22;;;;;;;1.73;0.90;;;11.50;99.90;;;11.33;100.00;98256.06;5124864;29;20079;-73
2022/11/17 05:59:59;;;;;;;1.15;0.90;;;11.50;99.90;;;11.32;100.00;98267.38;5140820;28;20055;-73
2022/11/17 06:02:37;;;;;;;2.50;1.20;;;11.50;99.90;;;11.32;100.00;98262.16;5126153;28;20044;-73
2022/11/17 06:05:10;;;;;;;2.00;0.90;;;11.50;99.90;;;11.31;100.00;98255.22;5126123;28;20615;-73
2022/11/17 06:07:43;;;;;;;4.18;1.10;;;11.50;99.90;;;11.33;100.00;98258.66;5124556;29;20054;-71
2022/11/17 06:10:16;;;;;;;2.50;1.05;;;11.50;99.90;;;11.33;100.00;98269.09;5126140;28;20044;-73
2022/11/17 06:12:48;;;;;;;2.28;1.10;;;11.50;99.90;;;11.36;100.00;98269.09;5125720;28;20051;-72
2022/11/17 06:15:20;;;;;;;2.38;1.23;;;11.50;99.90;;;11.38;100.00;98272.53;5125821;29;20057;-72
2022/11/17 06:17:57;;;;;;;1.80;0.95;;;11.50;99.90;;;11.39;100.00;98271.66;5140396;28;20058;-73
2022/11/17 06:20:34;;;;;;;1.75;1.13;;;11.50;99.90;;;11.40;100.00;98276.84;5140763;28;20109;-73
2022/11/17 06:23:10;;;;;;;2.10;1.10;;;11.50;99.90;;;11.40;100.00;98281.19;5125715;28;20043;-74
2022/11/17 06:25:43;;;;;;;3.47;1.10;;;11.50;99.90;;;11.41;100.00;98285.56;5140676;28;20162;-73
2022/11/17 06:28:19;;;;;;;3.38;1.10;;;11.50;99.90;;;11.41;100.00;98293.41;5125277;28;20056;-73
2022/11/17 06:30:52;;;;;;;2.55;0.90;;;11.50;99.90;;;11.45;100.00;98300.28;5125338;28;20074;-73
2022/11/17 06:33:25;;;;;;;2.25;0.90;;;11.50;99.90;;;11.51;100.00;98325.47;5123760;29;20055;-73
2022/11/17 06:36:00;;;;;;;2.35;1.00;;;11.50;99.90;;;11.52;100.00;98337.63;5124651;28;20145;-73
2022/11/17 06:38:35;;;;;;;3.30;1.20;;;11.60;99.90;;;11.53;100.00;98329.78;5125236;28;20043;-73
2022/11/17 06:41:07;;;;;;;5.03;1.05;;;11.60;99.90;;;11.59;100.00;98323.66;5125516;28;20568;-72
2022/11/17 06:43:40;;;;;;;3.28;1.30;;;11.60;99.90;;;11.57;100.00;98326.28;5123585;29;20068;-74
2022/11/17 06:46:12;;;;;;;3.90;1.10;;;11.60;99.90;;;11.60;100.00;98328.00;5125564;28;20058;-74
2022/11/17 06:48:46;;;;;;;4.47;1.40;;;11.60;99.90;;;11.57;100.00;98341.94;5139547;28;20415;-75
2022/11/17 06:51:18;;;;;;;3.88;1.42;;;11.60;99.90;;;11.60;100.00;98341.03;5125233;28;20053;-75
2022/11/17 06:53:51;;;;;;;2.22;1.23;;;11.60;99.90;;;11.57;100.00;98341.94;5139787;28;20051;-74
2022/11/17 06:56:24;;;;;;;3.95;1.42;;;11.60;99.90;;;11.56;100.00;98337.59;5139803;28;20051;-74
2022/11/17 06:58:57;;;;;;;5.95;1.35;;;11.60;99.90;;;11.57;100.00;98351.50;5124793;28;20043;-75
2022/11/17 07:01:30;;;;;;;7.22;1.85;;;11.60;99.90;;;11.58;100.00;98348.00;5124752;28;20069;-73
2022/11/17 07:04:02;;;;;;;7.53;1.90;;;11.60;99.90;;;11.59;100.00;98344.53;5138703;28;20071;-55
2022/11/17 07:06:36;;;;;;;6.40;2.08;;;11.60;99.90;;;11.59;100.00;98344.53;5124510;28;20050;-57
2022/11/17 07:09:10;;;;;;;8.35;1.67;;;11.60;99.90;;;11.59;100.00;98339.31;5124523;28;20058;-57
2022/11/17 07:11:42;;;;;;;7.47;1.63;;;11.60;99.90;;;11.56;100.00;98335.00;5124546;28;20047;-58
2022/11/17 07:14:14;;;;;;;1.70;0.80;;;11.60;99.90;;;11.57;100.00;98331.50;5124613;28;20047;-58
2022/11/17 07:16:46;;;;;;;1.08;0.52;;;11.60;99.90;;;11.55;100.00;98328.03;5124923;28;20507;-58
2022/11/17 07:19:18;;;;;;;1.50;0.70;;;11.60;99.90;;;11.55;100.00;98317.63;5124690;28;20496;-57
2022/11/17 07:21:50;;;;;;;4.28;0.93;;;11.60;99.90;;;11.54;100.00;98328.03;5124213;28;20505;-57
2022/11/17 07:24:23;;;;;;;1.80;0.70;;;11.60;99.90;;;11.54;100.00;98326.31;5124083;28;20051;-58
2022/11/17 07:26:56;;;;;;;1.58;0.77;;;11.60;99.90;;;11.54;100.00;98336.75;5124260;28;20497;-56
2022/11/17 07:29:29;;;;;;;1.88;0.95;;;11.60;99.90;;;11.53;100.00;98335.00;5138530;28;20055;-57
2022/11/17 07:32:01;;;;;;;1.67;0.70;;;11.50;99.90;;;11.54;100.00;98341.97;5123820;28;20730;-57
2022/11/17 07:34:33;;;;;;;0.60;0.45;;;11.50;99.90;;;11.56;100.00;98345.44;5138675;28;20491;-58
2022/11/17 07:37:06;;;;;;;1.02;0.70;;;11.60;99.90;;;11.59;100.00;98354.97;5123791;28;20047;-59
2022/11/17 07:39:39;;;;;;;1.10;0.57;;;11.60;99.90;;;11.62;100.00;98360.16;5123320;28;20102;-58
2022/11/17 07:42:11;;;;;;;0.63;0.40;;;11.60;99.90;;;11.62;100.00;98362.78;5123547;28;20791;-58
2022/11/17 07:44:43;;;;;;;0.47;0.47;;;11.60;99.90;;;11.64;100.00;98363.63;5123770;28;20051;-57
2022/11/17 07:47:15;;;;;;;1.42;0.52;;;11.60;99.90;;;11.66;100.00;98364.47;5123855;28;20310;-56
2022/11/17 07:49:47;;;;;;;0.52;0.30;;;11.60;99.90;;;11.66;100.00;98380.13;5123365;28;20488;-56
2022/11/17 07:52:19;;;;;;;0.57;0.57;;;11.70;99.90;;;11.67;100.00;98376.63;5123566;29;20054;-56
2022/11/17 07:54:53;;;;;;;0.98;0.50;;;11.60;99.90;;;11.67;100.00;98374.91;5123490;28;20062;-58
2022/11/17 07:57:27;;;;;;;2.13;0.80;;;11.70;99.90;;;11.67;100.00;98374.03;5123637;28;20057;-57
2022/11/17 07:59:59;;;;;;;0.68;0.40;;;11.70;99.90;;;11.68;100.00;98378.38;5117743;29;20047;-57
2022/11/17 08:02:31;;;;;;;0.70;0.70;;;11.70;99.90;;;11.70;100.00;98400.09;5122987;29;20383;-58
2022/11/17 08:05:04;;;;;;;2.15;0.68;;;11.70;99.90;;;11.70;100.00;98415.75;5121518;28;20127;-58
2022/11/17 08:07:36;;;;;;;1.90;0.60;;;11.70;99.90;;;11.73;100.00;98412.25;5122841;29;20055;-57
2022/11/17 08:10:10;;;;;;;2.08;0.85;;;11.70;99.90;;;11.78;100.00;98413.09;5123188;28;20576;-57
2022/11/17 08:12:42;;;;;;;3.42;1.40;;;11.80;99.90;;;11.87;100.00;98411.31;5123658;28;20051;-58
2022/11/17 08:15:14;;;;;;;2.03;1.08;;;11.80;99.90;;;11.94;100.00;98412.13;5123588;29;20050;-57
2022/11/17 08:17:51;;;;;;;3.38;0.95;;;11.90;99.90;;;12.02;100.00;98415.53;5123340;28;20493;-57
2022/11/17 08:20:24;;;;;;;1.10;0.70;;;12.00;99.90;;;12.10;100.00;98426.78;5123336;29;20043;-58
2022/11/17 08:22:57;;;;;;;2.72;0.73;;;12.00;99.90;;;12.21;100.00;98418.84;5123300;29;20515;-56
2022/11/17 08:25:30;;;;;;;1.83;0.80;;;12.20;99.90;;;12.37;100.00;98420.41;5123794;29;20051;-55
2022/11/17 08:28:03;;;;;;;3.35;0.68;;;12.30;99.90;;;12.48;100.00;98430.75;5123160;29;20047;-56
2022/11/17 08:30:35;;;;;;;2.90;0.80;;;12.40;99.90;;;12.49;100.00;98430.75;5122622;29;20379;-56
2022/11/17 08:33:07;;;;;;;0.40;0.40;;;12.40;99.90;;;12.46;100.00;98424.69;5122761;29;20073;-57
2022/11/17 08:35:39;;;;;;;2.60;0.65;;;12.40;99.90;;;12.43;100.00;98428.19;5123621;28;20509;-56
2022/11/17 08:38:14;;;;;;;1.00;0.50;;;12.40;99.90;;;12.41;100.00;98434.31;5123262;29;20055;-56
2022/11/17 08:40:47;;;;;;;1.42;0.60;;;12.40;99.90;;;12.41;100.00;98434.31;5123624;29;20532;-56
2022/11/17 08:43:19;;;;;;;0.95;0.45;;;12.40;99.90;;;12.38;100.00;98442.16;5123641;28;20515;-56
2022/11/17 08:45:51;;;;;;;1.08;0.60;;;12.40;99.90;;;12.38;100.00;98448.25;5123537;28;20048;-55
2022/11/17 08:48:24;;;;;;;0.68;0.50;;;12.30;99.90;;;12.36;100.00;98438.72;5123135;28;20051;-56
2022/11/17 08:50:56;;;;;;;1.30;0.45;;;12.40;99.90;;;12.35;100.00;98447.44;5122013;29;20510;-56
2022/11/17 08:53:28;;;;;;;1.40;0.70;;;12.30;99.90;;;12.35;100.00;98450.06;5123363;29;20047;-57
2022/11/17 08:56:01;;;;;;;1.42;0.50;;;12.30;99.90;;;12.34;100.00;98445.72;5126293;28;20054;-56
2022/11/17 08:58:39;;;;;;;1.63;0.73;;;12.30;99.90;;;12.37;100.00;98453.50;5127029;28;20079;-56
2022/11/17 09:01:14;;;;;;;1.40;0.70;;;12.30;99.90;;;12.38;100.00;98457.84;5122485;29;20050;-58
2022/11/17 09:03:48;;;;;;;0.70;0.50;;;12.30;99.90;;;12.41;100.00;98458.69;5123363;28;20067;-55
2022/11/17 09:06:20;;;;;;;4.10;1.70;;;12.40;99.90;;;12.46;100.00;98456.91;5121920;29;20489;-55
2022/11/17 09:08:54;;;;;;;2.30;0.90;;;12.40;99.90;;;12.49;100.00;98448.16;5126726;28;20051;-56
2022/11/17 09:11:27;;;;;;;3.13;1.20;;;12.40;99.90;;;12.55;100.00;98461.16;5127241;28;20098;-57
2022/11/17 09:13:59;;;;;;;2.05;0.68;;;12.50;99.90;;;12.59;100.00;98462.03;5126918;28;20043;-55
2022/11/17 09:16:31;;;;;;;2.72;0.70;;;12.50;99.90;;;12.63;100.00;98464.56;5127182;28;20055;-55
2022/11/17 09:19:04;;;;;;;1.63;0.80;;;12.50;99.90;;;12.68;100.00;98452.31;5126597;28;20054;-56
2022/11/17 09:21:36;;;;;;;2.35;0.70;;;12.60;99.90;;;12.77;100.00;98459.19;5127118;28;20497;-57
2022/11/17 09:24:08;;;;;;;1.13;0.70;;;12.60;99.90;;;12.83;100.00;98466.09;5126856;28;20043;-55
2022/11/17 09:26:42;;;;;;;2.67;0.73;;;12.70;99.90;;;12.90;100.00;98470.38;5126792;28;20043;-55
2022/11/17 09:29:14;;;;;;;3.20;0.70;;;12.70;99.90;;;12.99;100.00;98478.13;5126537;28;20057;-55
2022/11/17 09:31:46;;;;;;;1.17;0.55;;;12.80;99.90;;;13.11;100.00;98480.59;5124982;28;20538;-55
2022/11/17 09:34:18;;;;;;;1.80;0.50;;;12.90;99.90;;;13.24;100.00;98490.06;5122940;28;20044;-55
2022/11/17 09:36:50;;;;;;;6.07;1.00;;;13.00;99.90;;;13.84;100.00;98489.22;5127066;29;20057;-58
2022/11/17 09:39:22;;;;;;;2.67;0.88;;;13.70;99.90;;;14.08;100.00;98487.97;5126646;28;20327;-54
2022/11/17 09:41:57;;;;;;;1.70;0.80;;;14.00;99.90;;;14.05;100.00;98495.91;5125592;28;20054;-53
2022/11/17 09:44:39;;;;;;;2.15;0.95;;;14.00;99.90;;;13.89;100.00;98495.28;5124873;28;20042;-53
2022/11/17 09:47:20;;;;;;;1.25;0.60;;;13.90;99.90;;;13.73;100.00;98504.22;5126431;28;20483;-56
2022/11/17 09:49:59;;;;;;;1.98;0.50;;;13.70;99.90;;;13.55;100.00;98507.94;5126293;28;20051;-56
2022/11/17 09:52:48;;;;;;;1.67;0.60;;;13.60;99.90;;;13.43;100.00;98510.72;5126456;28;20043;-55
2022/11/17 09:55:27;;;;;;;3.17;1.23;;;13.50;99.90;;;13.33;100.00;98516.97;5126215;28;20054;-58
2022/11/17 09:58:13;;;;;;;2.75;1.00;;;13.30;99.90;;;13.24;100.00;98518.84;5125976;28;20527;-55
2022/11/17 10:00:49;;;;;;;2.30;0.70;;;13.20;99.90;;;13.17;100.00;98519.75;5126402;28;20055;-57
2022/11/17 10:03:26;;;;;;;4.10;1.38;;;13.10;99.90;;;13.16;100.00;98525.84;5126225;28;20475;-55
2022/11/17 10:05:59;;;;;;;1.52;0.70;;;13.10;99.90;;;13.14;100.00;98529.38;5126202;28;20047;-57
2022/11/17 10:08:39;;;;;;;0.82;0.55;;;13.00;99.90;;;13.14;100.00;98530.25;5125852;29;20409;-56
2022/11/17 10:11:32;;;;;;;1.27;0.60;;;13.00;99.90;;;13.17;100.00;98539.78;5126177;28;20051;-56
2022/11/17 10:14:22;;;;;;;3.55;1.50;;;13.10;99.90;;;13.13;100.00;98544.22;5125918;28;20043;-57
2022/11/17 10:16:58;;;;;;;2.08;0.90;;;13.10;99.90;;;13.11;100.00;98543.38;5126028;28;20504;-57
2022/11/17 10:19:33;;;;;;;2.35;1.02;;;13.00;99.90;;;13.14;100.00;98545.06;5118863;28;20492;-57
2022/11/17 10:22:20;;;;;;;1.83;0.70;;;13.10;99.90;;;13.20;100.00;98560.69;5116975;29;20054;-57
2022/11/17 10:24:56;;;;;;;0.63;0.40;;;13.00;99.90;;;13.27;100.00;98550.16;5116393;29;20428;-56
2022/11/17 10:27:31;;;;;;;1.33;0.38;;;13.10;99.90;;;13.34;100.00;98543.13;5121208;29;20407;-56
2022/11/17 10:30:21;;;;;;;1.95;0.40;;;13.20;99.90;;;13.39;100.00;98550.91;5125401;28;20043;-57
2022/11/17 10:32:56;;;;;;;1.95;0.25;;;13.20;99.90;;;13.49;100.00;98547.28;5125585;28;20055;-56
2022/11/17 10:35:30;;;;;;;0.75;0.30;;;13.30;99.90;;;13.52;100.00;98557.72;5125944;28;20047;-57
2022/11/17 10:38:06;;;;;;;0.68;0.47;;;13.30;99.90;;;13.53;100.00;98564.69;5123878;29;20054;-57
2022/11/17 10:40:49;;;;;;;1.48;0.50;;;13.40;99.90;;;13.53;100.00;98567.31;5125503;28;20043;-58
2022/11/17 10:43:26;;;;;;;1.17;0.50;;;13.40;99.90;;;13.52;100.00;98557.72;5122101;29;20058;-57
2022/11/17 10:46:04;;;;;;;2.10;0.60;;;13.40;99.90;;;13.49;100.00;98565.59;5125566;28;20043;-60
2022/11/17 10:48:38;;;;;;;0.95;0.50;;;13.40;99.90;;;13.47;100.00;98568.25;5125283;29;20409;-57
2022/11/17 10:51:23;;;;;;;1.83;0.60;;;13.30;99.90;;;13.45;100.00;98569.16;5125426;28;20043;-57
2022/11/17 10:54:06;;;;;;;1.00;0.40;;;13.30;99.90;;;13.51;100.00;98566.47;5125101;28;20561;-56
2022/11/17 10:56:42;;;;;;;0.50;0.40;;;13.40;99.90;;;13.58;100.00;98562.91;5125479;28;20039;-56
2022/11/17 10:59:19;;;;;;;0.30;0.30;;;13.40;99.90;;;13.54;100.00;98561.19;5124843;28;20043;-57
2022/11/17 11:01:52;;;;;;;0.57;0.45;;;13.40;99.90;;;13.53;100.00;98567.31;5125124;28;20047;-58
2022/11/17 11:04:32;;;;;;;0.65;0.30;;;13.40;99.90;;;13.50;100.00;98568.22;5125098;28;20055;-57
2022/11/17 11:07:11;;;;;;;1.88;0.47;;;13.40;99.90;;;13.50;100.00;98559.53;5125265;28;20051;-57
2022/11/17 11:09:51;;;;;;;0.75;0.40;;;13.40;99.90;;;13.50;100.00;98564.75;5123428;28;20047;-59
2022/11/17 11:12:33;;;;;;;0.52;0.40;;;13.40;99.90;;;13.55;100.00;98562.91;5124812;28;20040;-56
2022/11/17 11:15:08;;;;;;;2.08;0.50;;;13.40;99.90;;;13.57;100.00;98572.50;5125358;28;20043;-58